MBJ weather

Sangster International Airport
Montego Bay, Saint James, Jamaica

Public forecast

Using degrees Celsius for public forecast. Weather courtesy of forecast.io.

Current aviation weather report (METAR) for Sangster International Airport

Retrieved 2020/07/12 21:25 UTC (4 minutes ago):

MKJS 122125Z 13011KT 7000 3000E SHRA BKN020 SCT022CB 28/26 Q1013

Aviation forecast (TAF) for Sangster International Airport

Retrieved 2020/07/12 18:14 UTC (3 hours ago):

TAF MKJS 121715Z 1218/1318 05016KT 9999 FEW022 FEW024CB PROB30 TEMPO 1219/1224 TSRA BKN020 SCT022CB BECMG 1302/1304 VRB02KT BECMG 1316/1318 06018KT